Time;durP1;ratioP1;P1;durP2;ratioP2;P2;SDS_P1;SDS_P2;PMS_P1;PMS_P2;Temp;Humidity;BMP_temperature;BMP_pressure;BME280_temperature;BME280_humidity;BME280_pressure;Samples;Min_cycle;Max_cycle;Signal;HPM_P1;HPM_P2
2021/09/10 00:01:17;;;;;;;;;;;;;;;23.16;49.64;101232.84;5078852;28;1638;-39
2021/09/10 00:03:46;;;;;;;;;;;;;;;23.17;49.66;101224.56;5074933;28;1552;-39
2021/09/10 00:06:16;;;;;;;;;;;;;;;23.13;49.60;101217.78;5070034;28;1973;-39
2021/09/10 00:08:45;;;;;;;;;;;;;;;23.13;49.68;101223.19;5071800;28;1837;-39
2021/09/10 00:11:21;;;;;;;;;;;;;;;23.18;49.50;101228.13;5067088;28;1668;-39
2021/09/10 00:13:51;;;;;;;;;;;;;;;23.14;49.86;101221.31;5074588;28;1541;-39
2021/09/10 00:16:20;;;;;;;;;;;;;;;23.14;49.62;101213.22;5070323;28;1617;-39
2021/09/10 00:18:50;;;;;;;;;;;;;;;23.09;49.54;101208.28;5074059;28;1802;-39
2021/09/10 00:21:25;;;;;;;;;;;;;;;23.13;49.62;101222.34;5068953;28;1971;-39
2021/09/10 00:23:54;;;;;;;;;;;;;;;23.13;49.63;101217.78;5067581;28;1584;-40
2021/09/10 00:26:20;;;;;;;;;;;;;;;23.09;49.57;101213.69;5072779;28;1902;-39
2021/09/10 00:28:50;;;;;;;;;;;;;;;23.13;49.95;101214.25;5072051;28;1443;-39
2021/09/10 00:31:17;;;;;;;;;;;;;;;23.11;49.56;101227.03;5074734;28;1644;-39
2021/09/10 00:33:44;;;;;;;;;;;;;;;23.12;49.64;101223.31;5068965;28;1415;-39
2021/09/10 00:36:14;;;;;;;;;;;;;;;23.09;49.78;101231.72;5072199;28;1650;-39
2021/09/10 00:38:44;;;;;;;;;;;;;;;23.11;49.51;101240.53;5074641;28;1819;-39
2021/09/10 00:41:12;;;;;;;;;;;;;;;23.12;49.69;101251.16;5066183;28;1555;-39
2021/09/10 00:43:41;;;;;;;;;;;;;;;23.09;49.53;101231.72;5075544;28;1636;-39
2021/09/10 00:46:07;;;;;;;;;;;;;;;23.11;49.94;101238.66;5070343;28;1906;-40
2021/09/10 00:48:35;;;;;;;;;;;;;;;23.09;49.54;101235.28;5067216;28;1528;-39
2021/09/10 00:51:04;;;;;;;;;;;;;;;23.06;49.52;101230.19;5074815;28;1766;-39
2021/09/10 00:53:32;;;;;;;;;;;;;;;23.09;49.65;101224.47;5073686;28;1626;-39
2021/09/10 00:56:01;;;;;;;;;;;;;;;23.09;49.71;101239.81;5075181;28;1482;-39
2021/09/10 00:58:28;;;;;;;;;;;;;;;23.05;49.40;101233.88;5074539;28;1545;-39
2021/09/10 01:00:57;;;;;;;;;;;;;;;23.05;49.52;101233.88;5073464;28;1504;-39
2021/09/10 01:03:23;;;;;;;;;;;;;;;23.05;49.48;101238.44;5074062;28;1429;-39
2021/09/10 01:05:52;;;;;;;;;;;;;;;23.03;49.39;101252.91;5070358;28;1980;-39
2021/09/10 01:08:21;;;;;;;;;;;;;;;23.06;49.88;101242.81;5059317;28;1630;-39
2021/09/10 01:10:51;;;;;;;;;;;;;;;23.02;49.67;101234.19;5068449;28;1683;-39
2021/09/10 01:13:22;;;;;;;;;;;;;;;23.01;49.70;101238.69;5067095;28;1965;-39
2021/09/10 01:15:50;;;;;;;;;;;;;;;22.98;49.88;101248.94;5075057;28;1654;-39
2021/09/10 01:18:20;;;;;;;;;;;;;;;23.00;49.52;101246.94;5074091;28;1681;-39
2021/09/10 01:20:48;;;;;;;;;;;;;;;23.00;49.49;101258.59;5065074;28;1595;-39
2021/09/10 01:23:17;;;;;;;;;;;;;;;23.00;49.71;101246.94;5068737;28;1692;-39
2021/09/10 01:25:50;;;;;;;;;;;;;;;22.98;49.57;101249.78;5066148;28;1906;-39
2021/09/10 01:28:19;;;;;;;;;;;;;;;22.97;49.69;101242.69;5075081;28;1676;-39
2021/09/10 01:30:45;;;;;;;;;;;;;;;22.97;49.80;101249.94;5067185;28;1808;-39
2021/09/10 01:33:12;;;;;;;;;;;;;;;22.95;49.48;101254.63;5073558;28;1573;-39
2021/09/10 01:35:43;;;;;;;;;;;;;;;22.93;49.46;101240.44;5073664;28;1543;-39
2021/09/10 01:38:11;;;;;;;;;;;;;;;22.95;49.38;101244.69;5073539;28;1544;-39
2021/09/10 01:40:45;;;;;;;;;;;;;;;22.94;49.60;101253.78;5066228;28;1395;-39
2021/09/10 01:43:18;;;;;;;;;;;;;;;22.95;49.48;101252.78;5072227;28;1829;-39
2021/09/10 01:45:48;;;;;;;;;;;;;;;22.94;49.87;101248.41;5072127;28;2024;-39
2021/09/10 01:48:21;;;;;;;;;;;;;;;22.93;49.73;101245.84;5066722;28;1520;-39
2021/09/10 01:50:48;;;;;;;;;;;;;;;22.94;49.42;101248.41;5072251;28;1319;-39
2021/09/10 01:53:15;;;;;;;;;;;;;;;22.94;49.75;101248.41;5072360;28;1510;-39
2021/09/10 01:55:41;;;;;;;;;;;;;;;22.95;49.71;101255.47;5073080;28;1540;-39
2021/09/10 01:58:08;;;;;;;;;;;;;;;22.91;49.20;101259.47;5073019;28;1567;-39
2021/09/10 02:00:36;;;;;;;;;;;;;;;22.92;49.90;101250.41;5188771;23;3577;-42
2021/09/10 02:03:02;;;;;;;;;;;;;;;22.93;49.94;101252.06;4972718;28;1836;-41
2021/09/10 02:05:29;;;;;;;;;;;;;;;22.91;49.49;101253.22;4972910;28;2014;-41
2021/09/10 02:07:55;;;;;;;;;;;;;;;22.92;49.74;101254.91;4972374;28;1526;-42
2021/09/10 02:10:22;;;;;;;;;;;;;;;22.91;49.66;101267.56;4973351;28;1613;-41
2021/09/10 02:12:48;;;;;;;;;;;;;;;22.89;49.49;101264.16;4972593;28;2109;-41
2021/09/10 02:15:15;;;;;;;;;;;;;;;22.91;49.89;101259.47;4973916;28;1789;-41
2021/09/10 02:17:43;;;;;;;;;;;;;;;22.89;49.96;101249.84;4973081;28;1961;-41
2021/09/10 02:20:10;;;;;;;;;;;;;;;22.88;49.43;101249.00;4973531;28;1047;-41
2021/09/10 02:22:36;;;;;;;;;;;;;;;22.89;49.35;101250.69;4972612;28;1659;-41
2021/09/10 02:25:03;;;;;;;;;;;;;;;22.88;49.62;101258.91;4973126;28;2048;-41
2021/09/10 02:27:30;;;;;;;;;;;;;;;22.89;49.71;101253.38;4972554;28;2023;-41
2021/09/10 02:29:56;;;;;;;;;;;;;;;22.86;49.73;101251.00;4968763;28;1565;-41
2021/09/10 02:32:23;;;;;;;;;;;;;;;22.90;49.38;101267.69;4972447;28;1476;-41
2021/09/10 02:34:51;;;;;;;;;;;;;;;22.86;49.66;101259.09;4973157;28;1064;-41
2021/09/10 02:37:17;;;;;;;;;;;;;;;22.86;49.70;101261.78;4972943;28;1856;-41
2021/09/10 02:39:44;;;;;;;;;;;;;;;22.86;49.72;101253.69;4969091;28;1601;-42
2021/09/10 02:42:10;;;;;;;;;;;;;;;22.86;49.37;101261.78;4964643;28;1557;-41
2021/09/10 02:44:37;;;;;;;;;;;;;;;22.85;49.47;101270.84;4972239;28;1655;-41
2021/09/10 02:47:03;;;;;;;;;;;;;;;22.88;49.17;101267.00;4972638;28;1906;-41
2021/09/10 02:49:30;;;;;;;;;;;;;;;22.86;49.76;101263.59;4972136;28;1774;-41
2021/09/10 02:51:58;;;;;;;;;;;;;;;22.85;49.50;101270.84;4973327;28;1051;-41
2021/09/10 02:54:24;;;;;;;;;;;;;;;22.85;49.50;101270.84;4972566;28;2206;-41
2021/09/10 02:56:51;;;;;;;;;;;;;;;22.87;49.19;101286.91;4972438;28;1692;-41
2021/09/10 02:59:17;;;;;;;;;;;;;;;22.81;49.45;101273.00;4969250;28;1436;-41
2021/09/10 03:01:44;;;;;;;;;;;;;;;22.83;49.38;101286.34;4988730;28;1591;-41
2021/09/10 03:04:11;;;;;;;;;;;;;;;22.80;49.53;101278.53;5011281;28;2080;-42
2021/09/10 03:06:38;;;;;;;;;;;;;;;22.83;49.35;101280.94;5012225;28;1915;-41
2021/09/10 03:09:06;;;;;;;;;;;;;;;22.78;49.35;101285.91;5009565;28;1426;-41
2021/09/10 03:11:33;;;;;;;;;;;;;;;22.82;49.59;101290.03;5011319;28;1915;-42
2021/09/10 03:13:59;;;;;;;;;;;;;;;22.82;49.74;101290.03;5007830;28;1058;-41
2021/09/10 03:16:26;;;;;;;;;;;;;;;22.77;49.63;101268.06;5011006;28;1612;-41
2021/09/10 03:18:53;;;;;;;;;;;;;;;22.79;49.43;101274.16;5009869;28;1669;-41
2021/09/10 03:21:19;;;;;;;;;;;;;;;22.76;49.25;101279.81;5011097;28;1937;-41
2021/09/10 03:23:45;;;;;;;;;;;;;;;22.78;49.49;101288.59;5011313;28;2680;-41
2021/09/10 03:26:13;;;;;;;;;;;;;;;22.77;49.58;101285.06;5011228;28;1977;-41
2021/09/10 03:28:40;;;;;;;;;;;;;;;22.77;49.85;101284.22;5007311;28;1350;-41
2021/09/10 03:31:06;;;;;;;;;;;;;;;22.77;49.55;101285.06;5011188;28;1591;-41
2021/09/10 03:33:33;;;;;;;;;;;;;;;22.80;49.15;101281.22;5015381;28;1440;-41
2021/09/10 03:35:59;;;;;;;;;;;;;;;22.76;49.36;101277.13;5014817;28;1780;-42
2021/09/10 03:38:26;;;;;;;;;;;;;;;22.78;49.29;101275.13;5013909;28;1942;-41
2021/09/10 03:40:52;;;;;;;;;;;;;;;22.77;49.31;101285.06;5015602;28;1461;-41
2021/09/10 03:43:20;;;;;;;;;;;;;;;22.74;49.74;101287.22;5014702;28;1856;-41
2021/09/10 03:45:46;;;;;;;;;;;;;;;22.74;49.68;101285.38;5014404;28;1906;-41
2021/09/10 03:48:13;;;;;;;;;;;;;;;22.72;49.41;101286.50;5010446;28;1714;-41
2021/09/10 03:50:39;;;;;;;;;;;;;;;22.73;49.33;101285.53;5013008;28;1974;-41
2021/09/10 03:53:06;;;;;;;;;;;;;;;22.72;49.33;101278.41;5014084;28;1688;-41
2021/09/10 03:55:32;;;;;;;;;;;;;;;22.72;49.52;101283.81;5014847;28;1509;-41
2021/09/10 03:57:59;;;;;;;;;;;;;;;22.74;49.77;101279.13;5007723;28;1693;-41
2021/09/10 04:00:27;;;;;;;;;;;;;;;22.72;49.42;101282.00;5012858;28;1527;-41
2021/09/10 04:02:53;;;;;;;;;;;;;;;22.72;49.42;101275.72;5013076;28;1586;-41
2021/09/10 04:05:20;;;;;;;;;;;;;;;22.72;49.67;101267.63;5014535;28;1876;-41
2021/09/10 04:07:46;;;;;;;;;;;;;;;22.73;49.49;101274.75;5014249;28;1906;-41
2021/09/10 04:10:12;;;;;;;;;;;;;;;22.75;49.31;101280.84;5006482;28;1498;-42
2021/09/10 04:12:39;;;;;;;;;;;;;;;22.72;49.28;101270.34;5012710;28;1880;-41
2021/09/10 04:15:06;;;;;;;;;;;;;;;22.72;49.74;101271.22;5014709;28;1871;-41
2021/09/10 04:17:34;;;;;;;;;;;;;;;22.74;49.53;101287.22;5005696;28;2057;-41
2021/09/10 04:20:00;;;;;;;;;;;;;;;22.70;49.70;101273.19;5013917;28;1724;-41
2021/09/10 04:22:27;;;;;;;;;;;;;;;22.72;49.12;101270.34;5013969;28;1481;-41
2021/09/10 04:24:53;;;;;;;;;;;;;;;22.47;46.95;101278.09;5015050;28;1002;-41
2021/09/10 04:27:20;;;;;;;;;;;;;;;22.27;46.82;101288.06;5007608;28;1906;-41
2021/09/10 04:29:46;;;;;;;;;;;;;;;22.16;47.60;101280.97;5012760;28;1687;-41
2021/09/10 04:32:16;;;;;;;;;;;;;;;22.19;47.71;101294.13;5002682;28;1655;-41
2021/09/10 04:34:49;;;;;;;;;;;;;;;22.16;46.71;101294.44;5014742;28;1650;-41
2021/09/10 04:37:23;;;;;;;;;;;;;;;22.04;46.35;101307.19;5014366;28;1696;-41
2021/09/10 04:39:53;;;;;;;;;;;;;;;21.95;46.20;101304.50;5015119;28;1035;-41
2021/09/10 04:45:05;;;;;;;;;;;;;;;21.82;47.11;101305.63;5013583;28;1590;-41
2021/09/10 04:47:32;;;;;;;;;;;;;;;21.80;46.82;101296.81;5005684;28;1965;-41
2021/09/10 04:50:15;;;;;;;;;;;;;;;21.75;46.46;101312.56;5010780;28;1792;-41
2021/09/10 04:52:42;;;;;;;;;;;;;;;21.71;47.46;101308.47;5012544;28;1649;-41
2021/09/10 04:55:09;;;;;;;;;;;;;;;21.74;47.66;101305.47;5013982;28;1171;-41
2021/09/10 04:57:36;;;;;;;;;;;;;;;22.05;47.78;101284.66;5013799;28;1851;-41
2021/09/10 05:00:03;;;;;;;;;;;;;;;22.22;48.88;101291.16;5013547;28;1966;-41
2021/09/10 05:02:29;;;;;;;;;;;;;;;22.30;49.26;101285.06;5011225;28;1402;-41
2021/09/10 05:04:56;;;;;;;;;;;;;;;22.40;49.97;101290.44;5012697;28;1538;-41
2021/09/10 05:07:24;;;;;;;;;;;;;;;22.46;50.64;101289.84;5012743;28;1910;-41
2021/09/10 05:09:50;;;;;;;;;;;;;;;22.52;50.29;101289.28;5014062;28;1000;-41
2021/09/10 05:12:17;;;;;;;;;;;;;;;22.56;50.24;101279.91;5012343;28;1654;-41
2021/09/10 05:14:43;;;;;;;;;;;;;;;22.59;50.03;101285.00;5013201;28;1563;-42
2021/09/10 05:17:10;;;;;;;;;;;;;;;22.64;50.71;101277.34;5011483;28;1498;-44
2021/09/10 05:19:37;;;;;;;;;;;;;;;22.68;50.61;101290.50;5012904;28;1853;-42
2021/09/10 05:22:04;;;;;;;;;;;;;;;22.71;50.66;101279.44;5013420;28;1095;-42
2021/09/10 05:24:31;;;;;;;;;;;;;;;22.73;50.81;101274.75;5013195;28;1808;-42
2021/09/10 05:26:58;;;;;;;;;;;;;;;22.75;50.65;101287.06;5012161;28;1985;-42
2021/09/10 05:29:24;;;;;;;;;;;;;;;22.75;50.79;101278.97;5012981;28;1500;-42
2021/09/10 05:31:51;;;;;;;;;;;;;;;22.82;50.73;101263.06;5010692;28;1576;-42
2021/09/10 05:34:17;;;;;;;;;;;;;;;22.82;50.36;101281.94;5010655;28;1542;-42
2021/09/10 05:36:44;;;;;;;;;;;;;;;22.86;50.43;101277.97;5013294;28;1269;-42
2021/09/10 05:39:32;;;;;;;;;;;;;;;22.92;50.48;101285.44;5012434;28;1611;-42
2021/09/10 05:42:00;;;;;;;;;;;;;;;22.91;50.84;101288.28;5012885;28;1934;-42
2021/09/10 05:44:26;;;;;;;;;;;;;;;22.95;51.00;101287.84;5011826;28;1519;-42
2021/09/10 05:46:53;;;;;;;;;;;;;;;22.96;51.19;101272.50;5010858;28;1906;-42
2021/09/10 05:49:19;;;;;;;;;;;;;;;23.02;51.40;101266.56;5006392;28;1628;-41
2021/09/10 05:54:28;;;;;;;;;;;;;;;23.09;51.71;101291.91;5001651;28;2190;-40
2021/09/10 05:56:58;;;;;;;;;;;;;;;23.15;51.74;101287.78;5005269;28;1635;-41
2021/09/10 05:59:29;;;;;;;;;;;;;;;23.16;51.50;101290.34;5000248;28;1745;-40
2021/09/10 06:01:56;;;;;;;;;;;;;;;23.18;52.03;101288.34;5005630;28;1994;-41
2021/09/10 06:04:25;;;;;;;;;;;;;;;23.22;51.71;101283.50;5001198;28;1455;-43
2021/09/10 06:09:37;;;;;;;;;;;;;;;23.28;52.27;101299.06;5012280;28;2687;-42
2021/09/10 06:12:05;;;;;;;;;;;;;;;23.31;52.32;101287.13;5012623;28;1985;-43
2021/09/10 06:14:47;;;;;;;;;;;;;;;23.29;52.33;101294.53;5013001;28;1707;-42
2021/09/10 06:17:23;;;;;;;;;;;;;;;23.29;52.47;101271.06;4999472;28;1562;-42
2021/09/10 06:19:50;;;;;;;;;;;;;;;23.18;49.74;101291.03;5006116;28;1566;-42
2021/09/10 06:22:28;;;;;;;;;;;;;;;23.21;50.45;101297.97;5008604;28;1367;-43
2021/09/10 06:25:03;;;;;;;;;;;;;;;23.25;50.79;101302.06;5004971;28;1469;-42
2021/09/10 06:27:29;;;;;;;;;;;;;;;23.24;51.75;101303.06;5008488;28;1894;-42
2021/09/10 06:29:58;;;;;;;;;;;;;;;23.27;51.55;101302.75;5010510;28;1336;-43
2021/09/10 06:32:26;;;;;;;;;;;;;;;23.29;51.89;101306.16;5001639;28;1434;-42
2021/09/10 06:34:55;;;;;;;;;;;;;;;23.32;51.87;101295.06;5006863;28;1575;-43
2021/09/10 06:37:23;;;;;;;;;;;;;;;23.35;52.26;101297.44;5008636;28;1650;-42
2021/09/10 06:39:50;;;;;;;;;;;;;;;23.37;52.33;101308.94;5008357;28;1491;-42
2021/09/10 06:42:16;;;;;;;;;;;;;;;23.39;51.91;101290.75;5003822;28;1484;-42
2021/09/10 06:44:43;;;;;;;;;;;;;;;23.49;52.08;101300.66;5005956;28;1402;-42
2021/09/10 06:47:09;;;;;;;;;;;;;;;23.47;52.50;101295.38;5006353;28;1987;-43
2021/09/10 06:49:37;;;;;;;;;;;;;;;23.51;52.65;101298.63;5008239;28;1111;-42
2021/09/10 06:52:04;;;;;;;;;;;;;;;23.57;52.61;101298.88;5006121;28;1896;-42
2021/09/10 06:54:30;;;;;;;;;;;;;;;23.63;52.90;101302.81;5006574;28;1715;-43
2021/09/10 06:56:57;;;;;;;;;;;;;;;23.62;52.69;101301.13;5002651;28;1461;-44
2021/09/10 06:59:23;;;;;;;;;;;;;;;23.61;52.64;101292.16;5005566;28;1653;-43
2021/09/10 07:01:50;;;;;;;;;;;;;;;23.60;52.56;101292.34;5008213;28;1652;-43
2021/09/10 07:04:19;;;;;;;;;;;;;;;23.61;51.99;101302.13;5006961;28;1560;-43
2021/09/10 07:06:48;;;;;;;;;;;;;;;23.60;51.62;101286.94;5008070;28;1981;-44
2021/09/10 07:09:16;;;;;;;;;;;;;;;23.62;52.63;101299.28;5006039;28;1291;-43
2021/09/10 07:17:20;;;;;;;;;;;;;;;23.63;52.68;101292.00;5006432;28;1728;-44
2021/09/10 07:19:47;;;;;;;;;;;;;;;23.65;53.07;101292.72;5013862;28;1576;-43
2021/09/10 07:22:17;;;;;;;;;;;;;;;23.66;53.11;101297.13;5011260;28;1270;-43
2021/09/10 07:24:52;;;;;;;;;;;;;;;23.67;52.49;101287.16;5009729;28;1342;-44
2021/09/10 07:27:20;;;;;;;;;;;;;;;23.71;52.01;101297.50;5005363;28;1973;-43
2021/09/10 07:29:53;;;;;;;;;;;;;;;23.74;52.84;101289.09;5007770;28;1591;-45
2021/09/10 07:32:23;;;;;;;;;;;;;;;23.72;53.37;101301.91;5008709;28;1740;-45
2021/09/10 07:34:51;;;;;;;;;;;;;;;23.69;53.37;101314.84;5004599;28;1988;-46
2021/09/10 07:37:27;;;;;;;;;;;;;;;23.66;53.39;101307.91;5008966;28;1477;-47
2021/09/10 07:40:02;;;;;;;;;;;;;;;23.66;53.51;101301.69;5015311;28;1525;-44
2021/09/10 07:42:33;;;;;;;;;;;;;;;23.71;53.68;101308.28;5015025;28;1892;-43
2021/09/10 07:45:02;;;;;;;;;;;;;;;23.69;54.42;101302.19;5013637;28;1526;-45
2021/09/10 07:47:32;;;;;;;;;;;;;;;23.65;54.39;101300.81;5014163;28;2054;-45
2021/09/10 07:50:02;;;;;;;;;;;;;;;23.70;53.92;101300.38;5015259;28;1762;-45
2021/09/10 07:52:33;;;;;;;;;;;;;;;23.70;53.58;101295.81;5013530;28;1606;-45
2021/09/10 07:54:59;;;;;;;;;;;;;;;23.75;50.80;101296.16;5007650;28;1509;-46
2021/09/10 07:57:26;;;;;;;;;;;;;;;23.69;50.55;101288.69;5013537;28;2076;-45
2021/09/10 07:59:56;;;;;;;;;;;;;;;23.71;51.00;101277.75;5011155;28;1750;-45
2021/09/10 08:02:22;;;;;;;;;;;;;;;23.74;50.27;101290.94;5009246;28;1417;-45
2021/09/10 08:04:49;;;;;;;;;;;;;;;23.76;49.62;101297.03;5012875;28;1570;-46
2021/09/10 08:07:15;;;;;;;;;;;;;;;23.69;49.21;101277.88;5015194;28;1961;-47
2021/09/10 08:09:43;;;;;;;;;;;;;;;23.68;49.20;101289.72;5015594;28;1523;-45
2021/09/10 08:12:10;;;;;;;;;;;;;;;23.71;49.53;101305.59;5014834;28;1666;-46
2021/09/10 08:14:36;;;;;;;;;;;;;;;23.68;49.13;101284.31;5013574;28;1934;-46
2021/09/10 08:17:03;;;;;;;;;;;;;;;23.70;49.24;101303.06;5002619;28;1960;-45
2021/09/10 08:19:29;;;;;;;;;;;;;;;23.66;48.46;101302.53;5014309;28;1274;-45
2021/09/10 08:21:56;;;;;;;;;;;;;;;23.70;48.45;101286.88;5015025;28;1512;-46
2021/09/10 08:24:22;;;;;;;;;;;;;;;23.70;49.27;101282.31;5012012;28;2058;-46
2021/09/10 08:26:50;;;;;;;;;;;;;;;23.63;49.44;101279.38;5009278;28;1631;-45
2021/09/10 08:29:19;;;;;;;;;;;;;;;23.70;49.83;101295.81;5012983;28;1985;-45
2021/09/10 08:31:45;;;;;;;;;;;;;;;23.69;49.12;101277.88;5014139;28;1660;-45
2021/09/10 08:34:16;;;;;;;;;;;;;;;23.70;48.29;101279.59;5010156;28;1479;-46
2021/09/10 08:36:56;;;;;;;;;;;;;;;23.73;48.73;101283.84;5014009;28;1613;-47
2021/09/10 08:39:26;;;;;;;;;;;;;;;23.78;49.33;101279.72;5007270;28;1518;-45
2021/09/10 08:42:01;;;;;;;;;;;;;;;23.76;49.82;101270.03;5009115;28;2049;-45
2021/09/10 08:44:29;;;;;;;;;;;;;;;23.74;50.40;101264.78;5014236;28;1640;-46
2021/09/10 08:46:58;;;;;;;;;;;;;;;23.72;49.95;101264.09;5012462;28;1737;-45
2021/09/10 08:49:25;;;;;;;;;;;;;;;23.73;50.17;101249.56;4998117;28;1902;-45
2021/09/10 08:54:36;;;;;;;;;;;;;;;23.80;50.32;101255.25;5014174;28;2451;-45
2021/09/10 08:57:18;;;;;;;;;;;;;;;23.53;49.30;101250.75;5013928;28;1952;-46
2021/09/10 09:00:01;;;;;;;;;;;;;;;23.72;50.85;101258.69;5006937;28;1761;-46
2021/09/10 09:02:31;;;;;;;;;;;;;;;23.72;51.19;101237.09;5007339;28;1898;-46
2021/09/10 09:05:00;;;;;;;;;;;;;;;23.79;50.71;101254.38;5013451;28;1846;-45
2021/09/10 09:07:29;;;;;;;;;;;;;;;23.78;50.71;101232.97;5012246;28;1949;-46
2021/09/10 09:09:58;;;;;;;;;;;;;;;23.76;50.88;101233.06;4995843;28;1616;-46
2021/09/10 09:12:28;;;;;;;;;;;;;;;23.77;50.93;101213.19;5012906;28;1851;-45
2021/09/10 09:14:58;;;;;;;;;;;;;;;23.82;50.77;101237.03;5001016;28;1986;-45
2021/09/10 09:17:30;;;;;;;;;;;;;;;23.87;51.60;101239.25;5012930;28;1841;-45
2021/09/10 09:20:13;;;;;;;;;;;;;;;23.87;51.82;101225.75;5013755;28;1764;-45
2021/09/10 09:22:59;;;;;;;;;;;;;;;23.87;51.75;101220.34;5011463;28;1524;-46
2021/09/10 09:25:29;;;;;;;;;;;;;;;23.88;52.07;101213.97;5013912;28;1381;-45
2021/09/10 09:28:03;;;;;;;;;;;;;;;23.88;51.37;101219.38;5012296;28;1910;-45
2021/09/10 09:30:43;;;;;;;;;;;;;;;23.86;51.39;101222.22;5006973;28;1582;-45
2021/09/10 09:33:14;;;;;;;;;;;;;;;23.88;51.62;101224.78;5012714;28;1693;-45
2021/09/10 09:35:43;;;;;;;;;;;;;;;23.88;51.57;101219.38;5002293;28;1848;-45
2021/09/10 09:38:17;;;;;;;;;;;;;;;23.90;51.52;101225.47;5003051;28;1966;-46
2021/09/10 09:40:44;;;;;;;;;;;;;;;23.92;51.59;101209.94;4996629;28;1640;-45
2021/09/10 09:43:19;;;;;;;;;;;;;;;23.89;51.30;101212.94;5010787;28;1981;-48
2021/09/10 09:45:51;;;;;;;;;;;;;;;23.90;50.92;101211.97;5012237;28;1921;-45
2021/09/10 09:48:28;;;;;;;;;;;;;;;23.92;51.06;101216.19;5006580;28;1910;-46
2021/09/10 09:50:59;;;;;;;;;;;;;;;23.91;50.77;101213.63;5002682;28;1650;-45
2021/09/10 09:53:26;;;;;;;;;;;;;;;23.90;50.92;101201.16;5012335;28;1409;-46
2021/09/10 09:55:53;;;;;;;;;;;;;;;23.89;50.94;101204.84;5013047;28;1341;-45
2021/09/10 09:58:21;;;;;;;;;;;;;;;23.90;50.66;101211.97;5008528;28;1589;-45
2021/09/10 10:01:03;;;;;;;;;;;;;;;23.90;50.40;101203.84;5012867;28;1439;-45
2021/09/10 10:03:31;;;;;;;;;;;;;;;23.88;50.41;101206.72;5007297;28;1742;-45
2021/09/10 10:06:07;;;;;;;;;;;;;;;23.91;50.18;101192.03;5009438;28;1655;-46
2021/09/10 10:08:38;;;;;;;;;;;;;;;23.91;50.65;101194.72;5011713;28;1910;-45
2021/09/10 10:11:07;;;;;;;;;;;;;;;23.90;50.81;101201.16;5004369;28;1467;-47
2021/09/10 10:13:35;;;;;;;;;;;;;;;23.87;50.62;101194.19;5005074;28;1447;-46
2021/09/10 10:16:06;;;;;;;;;;;;;;;23.92;50.61;101194.56;5011142;28;1644;-45
2021/09/10 10:18:39;;;;;;;;;;;;;;;23.94;50.67;101191.72;5012963;28;1503;-45
2021/09/10 10:21:08;;;;;;;;;;;;;;;23.95;50.60;101196.09;5005386;28;1662;-45
2021/09/10 10:23:50;;;;;;;;;;;;;;;23.91;50.52;101186.63;5003802;28;2083;-45
2021/09/10 10:29:23;;;;;;;;;;;;;;;23.92;50.77;101183.78;4995750;28;2423;-45
2021/09/10 10:32:08;;;;;;;;;;;;;;;23.88;50.69;101187.78;5010613;28;1729;-46
2021/09/10 10:34:38;;;;;;;;;;;;;;;23.92;50.86;101188.34;5007386;28;2151;-46
2021/09/10 10:37:19;;;;;;;;;;;;;;;23.96;50.66;101189.72;5009317;28;1737;-45
2021/09/10 10:39:49;;;;;;;;;;;;;;;23.93;51.58;101184.63;5012361;28;1555;-45
2021/09/10 10:42:23;;;;;;;;;;;;;;;23.89;51.99;101181.38;5012094;28;1902;-46
2021/09/10 10:44:52;;;;;;;;;;;;;;;24.00;50.26;101183.81;5008383;28;1613;-46
2021/09/10 10:47:20;;;;;;;;;;;;;;;23.96;49.59;101178.91;5000262;28;2042;-45
2021/09/10 10:49:49;;;;;;;;;;;;;;;24.02;49.33;101183.69;5012505;28;1981;-45
2021/09/10 10:52:36;;;;;;;;;;;;;;;23.97;49.70;101161.69;5008801;28;1859;-46
2021/09/10 10:55:17;;;;;;;;;;;;;;;23.98;50.88;101177.72;5010353;28;1588;-46
2021/09/10 10:57:44;;;;;;;;;;;;;;;23.94;51.47;101170.13;5005210;28;1918;-46
2021/09/10 11:00:33;;;;;;;;;;;;;;;23.95;51.56;101171.78;5002812;28;1676;-46
2021/09/10 11:03:17;;;;;;;;;;;;;;;23.92;51.64;101164.03;5007066;28;1618;-46
2021/09/10 11:05:50;;;;;;;;;;;;;;;23.92;51.71;101172.13;5009083;28;1682;-46
2021/09/10 11:08:18;;;;;;;;;;;;;;;23.92;51.81;101167.56;5004121;28;1910;-46
2021/09/10 11:10:51;;;;;;;;;;;;;;;23.93;51.21;101157.59;5000238;28;2067;-46
2021/09/10 11:13:21;;;;;;;;;;;;;;;23.94;50.51;101145.81;5012281;28;1853;-46
2021/09/10 11:15:56;;;;;;;;;;;;;;;23.93;51.78;101146.78;5005717;28;1492;-46
2021/09/10 11:18:43;;;;;;;;;;;;;;;23.93;51.48;101150.34;5005449;28;1666;-46
2021/09/10 11:21:11;;;;;;;;;;;;;;;23.97;51.39;101140.94;5009429;28;1584;-46
2021/09/10 11:23:38;;;;;;;;;;;;;;;23.94;51.80;101152.03;5010612;28;1526;-46
2021/09/10 11:26:06;;;;;;;;;;;;;;;23.95;51.69;101144.78;5009964;28;1512;-47
2021/09/10 11:28:33;;;;;;;;;;;;;;;23.93;51.64;101136.84;5010884;28;2272;-46
2021/09/10 11:30:59;;;;;;;;;;;;;;;23.97;51.29;101153.56;5010120;28;1597;-46
2021/09/10 11:33:26;;;;;;;;;;;;;;;23.97;50.89;101138.25;5011339;28;1593;-46
2021/09/10 11:35:54;;;;;;;;;;;;;;;23.97;50.47;101132.84;5011119;28;1645;-45
2021/09/10 11:38:22;;;;;;;;;;;;;;;23.98;50.86;101139.06;5011608;28;1953;-46
2021/09/10 11:40:50;;;;;;;;;;;;;;;23.95;50.73;101124.00;5009869;28;1592;-46
2021/09/10 11:43:17;;;;;;;;;;;;;;;23.97;50.79;101138.25;5006098;28;2065;-46
2021/09/10 11:45:45;;;;;;;;;;;;;;;23.93;50.81;101122.50;5011631;28;2163;-46
2021/09/10 11:48:13;;;;;;;;;;;;;;;23.91;51.18;101133.44;5008351;28;1972;-46
2021/09/10 11:50:47;;;;;;;;;;;;;;;23.94;50.68;101135.84;5009105;28;1744;-50
2021/09/10 11:53:14;;;;;;;;;;;;;;;23.94;50.22;101137.69;5012782;28;1618;-46
2021/09/10 11:55:50;;;;;;;;;;;;;;;23.97;50.79;101131.97;5016065;28;1863;-46
2021/09/10 11:58:17;;;;;;;;;;;;;;;23.96;49.87;101135.69;5010049;28;1688;-46
2021/09/10 12:00:43;;;;;;;;;;;;;;;23.94;49.28;101133.13;5012438;28;1755;-46
2021/09/10 12:03:09;;;;;;;;;;;;;;;23.99;49.47;101119.16;5013466;28;2181;-45
2021/09/10 12:05:36;;;;;;;;;;;;;;;24.03;48.06;101142.13;5011251;28;1670;-45
2021/09/10 12:08:03;;;;;;;;;;;;;;;24.04;48.12;101122.22;5005902;28;1601;-45
2021/09/10 12:10:29;;;;;;;;;;;;;;;24.03;48.53;101125.91;5015363;28;1907;-46
2021/09/10 12:13:13;;;;;;;;;;;;;;;23.93;47.67;101123.31;5014751;28;1629;-46
2021/09/10 12:15:41;;;;;;;;;;;;;;;23.94;47.44;101138.53;5007931;28;1684;-45
2021/09/10 12:18:09;;;;;;;;;;;;;;;23.92;47.26;101128.91;5014739;28;1702;-45
2021/09/10 12:20:37;;;;;;;;;;;;;;;23.93;46.86;101120.63;5014791;28;1737;-45
2021/09/10 12:23:03;;;;;;;;;;;;;;;23.92;46.15;101108.16;5014354;28;1783;-45
2021/09/10 12:25:32;;;;;;;;;;;;;;;23.93;45.72;101122.50;5015637;28;1655;-46
2021/09/10 12:28:11;;;;;;;;;;;;;;;23.92;45.96;101129.75;5014477;28;2096;-46
2021/09/10 12:30:40;;;;;;;;;;;;;;;23.93;46.84;101119.78;5014294;28;1906;-45
2021/09/10 12:33:07;;;;;;;;;;;;;;;23.92;46.83;101129.75;5014334;28;1759;-45
2021/09/10 12:35:34;;;;;;;;;;;;;;;23.91;47.00;101124.50;5014256;28;1639;-45
2021/09/10 12:38:01;;;;;;;;;;;;;;;23.87;47.35;101115.88;5014095;28;1774;-45
2021/09/10 12:40:29;;;;;;;;;;;;;;;23.90;47.03;101120.97;5015118;28;1056;-45
2021/09/10 12:42:55;;;;;;;;;;;;;;;23.89;45.96;101121.94;5014141;28;1584;-46
2021/09/10 12:45:22;;;;;;;;;;;;;;;23.87;45.66;101120.44;5014075;28;1665;-45
2021/09/10 12:47:50;;;;;;;;;;;;;;;23.88;45.88;101133.78;5013980;28;1747;-45
2021/09/10 12:50:17;;;;;;;;;;;;;;;23.91;45.56;101127.19;5014009;28;1910;-45
2021/09/10 12:52:44;;;;;;;;;;;;;;;23.88;44.73;101120.28;5014183;28;1741;-45
2021/09/10 12:55:11;;;;;;;;;;;;;;;23.87;45.15;101117.72;5014644;28;1495;-45
2021/09/10 12:57:38;;;;;;;;;;;;;;;23.87;45.30;101128.53;5014085;28;2122;-45
2021/09/10 13:00:06;;;;;;;;;;;;;;;23.85;45.25;101112.47;5014059;28;1432;-45
2021/09/10 13:02:32;;;;;;;;;;;;;;;23.86;45.02;101125.00;5013174;28;1792;-45
2021/09/10 13:05:00;;;;;;;;;;;;;;;23.86;44.58;101116.03;5012842;28;1596;-45
2021/09/10 13:07:27;;;;;;;;;;;;;;;23.83;44.32;101119.88;5013762;28;1436;-45
2021/09/10 13:09:53;;;;;;;;;;;;;;;23.85;44.16;101112.47;5014297;28;1975;-48
2021/09/10 13:12:20;;;;;;;;;;;;;;;23.81;44.04;101122.78;5013874;28;1805;-46
2021/09/10 13:15:03;;;;;;;;;;;;;;;23.82;44.46;101105.53;5014152;28;1639;-45
2021/09/10 13:17:30;;;;;;;;;;;;;;;23.84;43.87;101115.34;5013866;28;1747;-45